Terminal Aerodrome Forecast
Issued by NWS Louisville, KY

Home | Current Version | Previous Version | Text Only | Print | Product List | Glossary On
Versions: 1 2 3 4 5 6 7 8 9 10 11 12 13 14 15 16 17 18 19
000
FTUS43 KLMK 192323
TAFBWG
TAF
KBWG 192323Z 2000/2024 VRB03KT P6SM SKC
     FM200900 00000KT 2SM BR SKC
      TEMPO 2009/2012 1/2SM FG
     FM201300 17005KT P6SM SKC=

USA.gov is the U.S. government's official web portal to all federal, state and local government web resources and services.